createdAt,value
2023-01-18T00:00:02.839Z,-4.1
2023-01-18T00:15:02.401Z,-4.3
2023-01-18T00:30:02.717Z,-4.3
2023-01-18T00:45:03.157Z,-4.4
2023-01-18T01:00:02.594Z,-4.6
2023-01-18T01:15:03.042Z,-4.5
2023-01-18T01:30:02.468Z,-4.7
2023-01-18T01:45:02.914Z,-4.8
2023-01-18T02:00:02.437Z,-4.8
2023-01-18T02:15:02.766Z,-5.0
2023-01-18T02:30:02.424Z,-5.1
2023-01-18T02:45:02.649Z,-5.0
2023-01-18T03:00:03.123Z,-4.9
2023-01-18T03:15:02.562Z,-4.9
2023-01-18T03:30:02.989Z,-5.1
2023-01-18T03:45:02.465Z,-5.3
2023-01-18T04:00:02.862Z,-5.2
2023-01-18T04:15:02.488Z,-5.3
2023-01-18T04:30:02.747Z,-5.3
2023-01-18T04:45:03.196Z,-5.5
2023-01-18T05:00:02.637Z,-5.6
2023-01-18T05:15:03.098Z,-5.7
2023-01-18T05:30:03.079Z,-5.7
2023-01-18T05:45:02.963Z,-5.8
2023-01-18T06:00:02.499Z,-5.8
2023-01-18T06:15:02.855Z,-5.9
2023-01-18T06:30:02.437Z,-5.9
2023-01-18T06:45:02.689Z,-6.0
2023-01-18T07:00:03.121Z,-6.0
2023-01-18T07:15:16.299Z,-5.9
2023-01-18T07:30:03.010Z,-5.8
2023-01-18T07:45:02.518Z,-5.9
2023-01-18T08:00:02.895Z,-5.8
2023-01-18T08:15:02.530Z,-5.6
2023-01-18T08:30:02.763Z,-5.3
2023-01-18T08:45:03.207Z,-5.0
2023-01-18T09:00:02.622Z,-4.7
2023-01-18T09:15:03.070Z,-4.3
2023-01-18T09:30:02.537Z,-3.7
2023-01-18T09:45:02.943Z,-2.7
2023-01-18T10:00:02.548Z,-2.1
2023-01-18T10:15:02.849Z,-1.6
2023-01-18T10:30:02.320Z,-1.1
2023-01-18T10:45:02.747Z,-0.6
2023-01-18T11:00:03.172Z,-0.2
2023-01-18T11:15:02.588Z,0.2
2023-01-18T11:30:03.068Z,0.6
2023-01-18T11:45:02.591Z,1.0
2023-01-18T12:00:02.906Z,1.3
2023-01-18T12:15:02.552Z,1.4
2023-01-18T12:30:02.783Z,2.1
2023-01-18T12:45:03.223Z,3.6
2023-01-18T13:00:02.771Z,2.7
2023-01-18T13:15:03.107Z,1.6
2023-01-18T13:30:02.627Z,1.3
2023-01-18T13:45:02.977Z,1.3
2023-01-18T14:00:02.650Z,1.4
2023-01-18T14:15:02.834Z,1.4
2023-01-18T14:30:02.268Z,1.4
2023-01-18T14:45:02.710Z,1.4
2023-01-18T15:00:03.152Z,1.4
2023-01-18T15:15:02.634Z,1.4
2023-01-18T15:30:03.028Z,1.3
2023-01-18T15:45:02.643Z,1.1
2023-01-18T16:00:02.908Z,0.9
2023-01-18T16:15:02.345Z,0.7
2023-01-18T16:30:02.786Z,0.5
2023-01-18T16:45:03.219Z,0.5
2023-01-18T17:00:02.685Z,0.5
2023-01-18T17:15:03.107Z,0.4
2023-01-18T17:30:02.751Z,0.4
2023-01-18T17:45:03.010Z,0.6
2023-01-18T18:00:02.746Z,0.5
2023-01-18T18:15:02.875Z,0.6
2023-01-18T18:30:02.306Z,0.6
2023-01-18T18:45:02.770Z,0.6
2023-01-18T19:00:03.177Z,0.6
2023-01-18T19:15:02.684Z,0.6
2023-01-18T19:30:03.063Z,0.6
2023-01-18T19:45:04.822Z,0.6
2023-01-18T20:15:02.425Z,0.7
2023-01-18T20:30:02.805Z,0.7
2023-01-18T20:45:03.254Z,0.8
2023-01-18T21:00:02.721Z,0.8
2023-01-18T21:15:03.116Z,0.8
2023-01-18T21:30:02.711Z,1.0
2023-01-18T21:45:02.991Z,1.0
2023-01-18T22:00:02.421Z,1.0
2023-01-18T22:15:03.132Z,1.1
2023-01-18T22:45:02.747Z,1.1
2023-01-18T23:00:03.147Z,1.0
2023-01-18T23:15:02.755Z,1.1
2023-01-18T23:30:03.135Z,1.1
2023-01-18T23:45:02.457Z,1.0
